Time;durP1;ratioP1;P1;durP2;ratioP2;P2;SDS_P1;SDS_P2;PMS_P1;PMS_P2;Temp;Humidity;BMP_temperature;BMP_pressure;BME280_temperature;BME280_humidity;BME280_pressure;Samples;Min_cycle;Max_cycle;Signal;HPM_P1;HPM_P2
2022/03/12 00:00:48;;;;;;;;;;;8.00;51.50;;;;;;5076189;28;19951;-65
2022/03/12 00:03:17;;;;;;;;;;;7.70;51.60;;;;;;5076090;28;20281;-63
2022/03/12 00:05:52;;;;;;;;;;;7.80;51.50;;;;;;5075498;28;20423;-67
2022/03/12 00:08:20;;;;;;;;;;;7.70;52.00;;;;;;5075920;28;20388;-64
2022/03/12 00:10:50;;;;;;;;;;;7.50;51.70;;;;;;5075328;28;20008;-64
2022/03/12 00:13:18;;;;;;;;;;;7.70;53.40;;;;;;5093690;28;20258;-63
2022/03/12 00:15:43;;;;;;;;;;;7.80;53.60;;;;;;5093121;28;20159;-62
2022/03/12 00:18:09;;;;;;;;;;;7.60;52.10;;;;;;5093919;28;20361;-65
2022/03/12 00:20:35;;;;;;;;;;;7.50;51.80;;;;;;5093661;28;20365;-62
2022/03/12 00:23:00;;;;;;;;;;;7.50;51.80;;;;;;5094379;28;19908;-64
2022/03/12 00:25:26;;;;;;;;;;;7.30;51.80;;;;;;5093026;28;19924;-63
2022/03/12 00:27:52;;;;;;;;;;;7.30;52.00;;;;;;5075131;28;19915;-61
2022/03/12 00:30:19;;;;;;;;;;;7.30;52.00;;;;;;5075481;28;19992;-64
2022/03/12 00:32:45;;;;;;;;;;;7.30;52.10;;;;;;5074409;28;20475;-61
2022/03/12 00:35:11;;;;;;;;;;;7.30;52.10;;;;;;5093290;28;20019;-61
2022/03/12 00:37:37;;;;;;;;;;;7.50;52.10;;;;;;5092766;28;19959;-61
2022/03/12 00:40:03;;;;;;;;;;;7.40;52.50;;;;;;5093570;28;19909;-66
2022/03/12 00:42:29;;;;;;;;;;;7.30;51.90;;;;;;5074659;28;19912;-62
2022/03/12 00:44:55;;;;;;;;;;;7.30;52.10;;;;;;5093316;28;19912;-63
2022/03/12 00:47:20;;;;;;;;;;;7.20;52.20;;;;;;5092829;28;19955;-61
2022/03/12 00:49:46;;;;;;;;;;;7.20;52.10;;;;;;5074572;28;19912;-61
2022/03/12 00:52:12;;;;;;;;;;;6.90;52.50;;;;;;5092989;28;19935;-66
2022/03/12 00:54:37;;;;;;;;;;;6.90;52.50;;;;;;5092452;28;20277;-62
2022/03/12 00:57:03;;;;;;;;;;;7.00;52.60;;;;;;5074931;28;20006;-62
2022/03/12 00:59:28;;;;;;;;;;;6.90;52.50;;;;;;5092178;28;19909;-63
2022/03/12 01:01:54;;;;;;;;;;;6.90;52.60;;;;;;5057981;28;19915;-62
2022/03/12 01:04:19;;;;;;;;;;;6.90;52.80;;;;;;5077259;28;19948;-61
2022/03/12 01:06:46;;;;;;;;;;;6.90;52.90;;;;;;5096095;28;19953;-62
2022/03/12 01:09:12;;;;;;;;;;;6.90;52.80;;;;;;5097127;28;19915;-61
2022/03/12 01:11:39;;;;;;;;;;;7.00;52.70;;;;;;5096288;28;19912;-63
2022/03/12 01:14:09;;;;;;;;;;;7.00;52.80;;;;;;5097098;28;19912;-63
2022/03/12 01:16:34;;;;;;;;;;;6.80;52.80;;;;;;5096451;28;19912;-61
2022/03/12 01:19:00;;;;;;;;;;;6.80;53.00;;;;;;5078648;28;19915;-62
2022/03/12 01:21:26;;;;;;;;;;;6.80;53.00;;;;;;5078360;28;19908;-62
2022/03/12 01:23:51;;;;;;;;;;;6.70;52.90;;;;;;5077767;28;19935;-61
2022/03/12 01:26:18;;;;;;;;;;;6.60;53.30;;;;;;5096171;28;19928;-62
2022/03/12 01:28:44;;;;;;;;;;;6.70;53.30;;;;;;5096357;28;19916;-63
2022/03/12 01:31:10;;;;;;;;;;;6.80;53.10;;;;;;5094036;28;19908;-62
2022/03/12 01:33:35;;;;;;;;;;;6.80;53.20;;;;;;5084370;28;19915;-63
2022/03/12 01:36:02;;;;;;;;;;;6.70;53.10;;;;;;5097409;28;19912;-61
2022/03/12 01:38:32;;;;;;;;;;;6.60;53.40;;;;;;5078854;28;19916;-70
2022/03/12 01:41:02;;;;;;;;;;;6.50;53.60;;;;;;5096562;28;20007;-63
2022/03/12 01:43:27;;;;;;;;;;;6.80;53.50;;;;;;5078555;28;19934;-61
2022/03/12 01:46:00;;;;;;;;;;;6.60;53.50;;;;;;5077193;28;20365;-67
2022/03/12 01:48:26;;;;;;;;;;;6.80;53.70;;;;;;5077816;28;19909;-64
2022/03/12 01:50:51;;;;;;;;;;;6.70;53.50;;;;;;5077519;28;19915;-61
2022/03/12 01:53:17;;;;;;;;;;;6.60;53.70;;;;;;5077923;28;20411;-62
2022/03/12 01:55:43;;;;;;;;;;;6.70;53.80;;;;;;5095345;28;19973;-62
2022/03/12 01:58:24;;;;;;;;;;;6.60;53.60;;;;;;5095933;28;19908;-64
2022/03/12 02:00:58;;;;;;;;;;;6.60;53.90;;;;;;5075912;28;19977;-62
2022/03/12 02:03:29;;;;;;;;;;;6.60;53.70;;;;;;5077293;28;20373;-63
2022/03/12 02:05:56;;;;;;;;;;;6.50;53.70;;;;;;5074854;28;19909;-65
2022/03/12 02:08:22;;;;;;;;;;;6.70;53.50;;;;;;5074969;28;19991;-61
2022/03/12 02:10:49;;;;;;;;;;;6.70;53.30;;;;;;5074535;28;19919;-61
2022/03/12 02:13:14;;;;;;;;;;;6.70;52.80;;;;;;5075681;28;19954;-61
2022/03/12 02:15:41;;;;;;;;;;;6.50;53.00;;;;;;5056108;28;19912;-64
2022/03/12 02:18:07;;;;;;;;;;;6.40;53.40;;;;;;5075040;28;20251;-65
2022/03/12 02:20:32;;;;;;;;;;;6.40;53.60;;;;;;5075023;28;19909;-65
2022/03/12 02:22:59;;;;;;;;;;;6.40;53.30;;;;;;5057423;28;19922;-64
2022/03/12 02:25:32;;;;;;;;;;;6.50;53.30;;;;;;5064556;28;19929;-62
2022/03/12 02:27:59;;;;;;;;;;;6.30;53.30;;;;;;5055545;28;19964;-63
2022/03/12 02:30:35;;;;;;;;;;;6.30;53.20;;;;;;5055566;28;19955;-63
2022/03/12 02:33:01;;;;;;;;;;;6.50;53.50;;;;;;5038427;28;19940;-65
2022/03/12 02:35:34;;;;;;;;;;;6.50;53.40;;;;;;5037898;28;20027;-64
2022/03/12 02:38:00;;;;;;;;;;;6.60;53.00;;;;;;5055664;28;20368;-61
2022/03/12 02:40:25;;;;;;;;;;;6.20;53.30;;;;;;5055415;28;19916;-62
2022/03/12 02:42:53;;;;;;;;;;;6.20;53.70;;;;;;5054494;28;19909;-62
2022/03/12 02:45:20;;;;;;;;;;;6.50;53.70;;;;;;5037400;28;19963;-64
2022/03/12 02:47:47;;;;;;;;;;;6.50;53.50;;;;;;5054272;28;19916;-62
2022/03/12 02:50:14;;;;;;;;;;;6.40;52.90;;;;;;5036953;28;20035;-63
2022/03/12 02:52:41;;;;;;;;;;;6.40;53.30;;;;;;5036188;28;20427;-62
2022/03/12 02:55:14;;;;;;;;;;;6.60;53.50;;;;;;5054294;28;20393;-61
2022/03/12 02:57:45;;;;;;;;;;;6.40;53.00;;;;;;5036269;28;19913;-63
2022/03/12 03:00:11;;;;;;;;;;;6.40;52.90;;;;;;5037225;28;19962;-62
2022/03/12 03:02:40;;;;;;;;;;;6.60;53.00;;;;;;5054176;28;19908;-63
2022/03/12 03:05:41;;;;;;;;;;;6.50;52.60;;;;;;5037054;28;19909;-61
2022/03/12 03:08:06;;;;;;;;;;;6.40;53.00;;;;;;5053863;28;19991;-62
2022/03/12 03:10:34;;;;;;;;;;;6.30;53.30;;;;;;5055002;28;20006;-62
2022/03/12 03:13:15;;;;;;;;;;;6.20;53.40;;;;;;5054483;28;19909;-64
2022/03/12 03:15:41;;;;;;;;;;;6.30;53.40;;;;;;5053967;28;19999;-61
2022/03/12 03:18:09;;;;;;;;;;;6.40;53.20;;;;;;5036302;28;20396;-64
2022/03/12 03:20:35;;;;;;;;;;;6.50;53.10;;;;;;5054034;28;19909;-75
2022/03/12 03:23:00;;;;;;;;;;;6.30;53.00;;;;;;5036276;28;19909;-61
2022/03/12 03:25:26;;;;;;;;;;;6.50;53.00;;;;;;5044484;28;20324;-62
2022/03/12 03:27:51;;;;;;;;;;;6.60;52.60;;;;;;5072275;28;20316;-63
2022/03/12 03:30:17;;;;;;;;;;;6.20;52.70;;;;;;5073901;28;19913;-63
2022/03/12 03:32:42;;;;;;;;;;;6.10;53.20;;;;;;5073372;28;19931;-63
2022/03/12 03:35:08;;;;;;;;;;;6.10;53.60;;;;;;5055847;28;19920;-61
2022/03/12 03:37:33;;;;;;;;;;;6.10;53.40;;;;;;5074155;28;20389;-63
2022/03/12 03:39:59;;;;;;;;;;;6.30;53.40;;;;;;5073396;28;19908;-67
2022/03/12 03:42:25;;;;;;;;;;;6.20;53.30;;;;;;5073914;28;19995;-63
2022/03/12 03:44:52;;;;;;;;;;;6.20;53.40;;;;;;5072997;28;19908;-63
2022/03/12 03:47:17;;;;;;;;;;;6.20;53.40;;;;;;5073848;28;20055;-62
2022/03/12 03:49:44;;;;;;;;;;;6.30;53.50;;;;;;5073271;28;19961;-62
2022/03/12 03:52:10;;;;;;;;;;;6.20;53.00;;;;;;5055560;28;19908;-62
2022/03/12 03:54:35;;;;;;;;;;;5.90;53.80;;;;;;5073377;28;19924;-63
2022/03/12 03:57:01;;;;;;;;;;;5.90;53.70;;;;;;5055861;28;19913;-63
2022/03/12 03:59:28;;;;;;;;;;;6.00;53.60;;;;;;5055686;28;20269;-61
2022/03/12 04:01:54;;;;;;;;;;;6.00;53.90;;;;;;5073046;28;19923;-63
2022/03/12 04:04:19;;;;;;;;;;;5.80;53.90;;;;;;5073347;28;19912;-63
2022/03/12 04:06:45;;;;;;;;;;;5.90;54.00;;;;;;5054956;28;20011;-62
2022/03/12 04:09:10;;;;;;;;;;;5.90;53.80;;;;;;5055319;28;19913;-63
2022/03/12 04:11:38;;;;;;;;;;;5.90;54.30;;;;;;5073156;28;19954;-63
2022/03/12 04:14:05;;;;;;;;;;;5.90;54.30;;;;;;5073453;28;20338;-61
2022/03/12 04:16:31;;;;;;;;;;;5.90;54.20;;;;;;5073249;28;20384;-63
2022/03/12 04:18:57;;;;;;;;;;;5.90;54.10;;;;;;5054812;28;19912;-63
2022/03/12 04:21:22;;;;;;;;;;;5.90;54.20;;;;;;5055062;28;19962;-65
2022/03/12 04:23:49;;;;;;;;;;;5.90;54.20;;;;;;5054997;28;20406;-64
2022/03/12 04:26:16;;;;;;;;;;;6.20;54.10;;;;;;5054734;28;20005;-62
2022/03/12 04:28:41;;;;;;;;;;;6.10;54.20;;;;;;5072399;28;19916;-63
2022/03/12 04:31:07;;;;;;;;;;;6.10;54.10;;;;;;5073269;28;19909;-63
2022/03/12 04:33:33;;;;;;;;;;;6.20;53.80;;;;;;5055037;28;20316;-61
2022/03/12 04:35:59;;;;;;;;;;;6.20;54.10;;;;;;5054357;28;20187;-62
2022/03/12 04:38:25;;;;;;;;;;;6.20;54.30;;;;;;5075518;28;19914;-64
2022/03/12 04:40:51;;;;;;;;;;;6.30;54.00;;;;;;5060949;28;19909;-62
2022/03/12 04:43:17;;;;;;;;;;;6.00;53.90;;;;;;5080229;28;19909;-62
2022/03/12 04:45:44;;;;;;;;;;;6.00;54.80;;;;;;5061207;28;19908;-64
2022/03/12 04:48:13;;;;;;;;;;;6.20;54.50;;;;;;5080003;28;19915;-62
2022/03/12 04:50:38;;;;;;;;;;;6.20;54.20;;;;;;5061960;28;19926;-63
2022/03/12 04:53:04;;;;;;;;;;;6.10;54.10;;;;;;5061140;28;20037;-65
2022/03/12 04:55:30;;;;;;;;;;;6.20;54.30;;;;;;5080036;28;20377;-67
2022/03/12 04:57:56;;;;;;;;;;;6.20;54.10;;;;;;5061872;28;19920;-62
2022/03/12 05:00:25;;;;;;;;;;;6.20;53.90;;;;;;5061881;28;20369;-61
2022/03/12 05:02:56;;;;;;;;;;;6.20;54.10;;;;;;5061348;28;20372;-62
2022/03/12 05:05:21;;;;;;;;;;;6.20;54.00;;;;;;5061290;28;19915;-61
2022/03/12 05:07:48;;;;;;;;;;;5.90;53.90;;;;;;5061369;28;20007;-63
2022/03/12 05:10:16;;;;;;;;;;;6.00;54.30;;;;;;5079612;28;19915;-63
2022/03/12 05:12:43;;;;;;;;;;;5.80;54.90;;;;;;5079053;28;19912;-73
2022/03/12 05:15:11;;;;;;;;;;;5.90;54.50;;;;;;5061423;28;19912;-63
2022/03/12 05:17:47;;;;;;;;;;;5.70;54.70;;;;;;5079440;28;19912;-62
2022/03/12 05:20:31;;;;;;;;;;;5.90;54.50;;;;;;5061267;28;19916;-62
2022/03/12 05:22:57;;;;;;;;;;;5.90;54.40;;;;;;5079056;28;19913;-62
2022/03/12 05:25:22;;;;;;;;;;;5.80;54.10;;;;;;5053269;28;19932;-62
2022/03/12 05:27:52;;;;;;;;;;;5.70;54.40;;;;;;5040978;28;20270;-63
2022/03/12 05:30:17;;;;;;;;;;;5.80;54.40;;;;;;5041579;28;19915;-62
2022/03/12 05:32:43;;;;;;;;;;;5.70;54.10;;;;;;5058639;28;20405;-69
2022/03/12 05:35:09;;;;;;;;;;;5.80;54.10;;;;;;5059026;28;19959;-62
2022/03/12 05:37:36;;;;;;;;;;;5.80;54.40;;;;;;5041261;28;19917;-60
2022/03/12 05:40:07;;;;;;;;;;;5.60;54.70;;;;;;5058641;28;19916;-62
2022/03/12 05:42:34;;;;;;;;;;;5.70;54.80;;;;;;5059114;28;19954;-60
2022/03/12 05:45:01;;;;;;;;;;;5.70;54.40;;;;;;5040796;28;19973;-61
2022/03/12 05:47:27;;;;;;;;;;;5.80;54.10;;;;;;5059394;28;19962;-60
2022/03/12 05:49:53;;;;;;;;;;;5.70;54.10;;;;;;5056524;28;19913;-59
2022/03/12 05:52:18;;;;;;;;;;;5.70;54.30;;;;;;5056420;28;20350;-59
2022/03/12 05:54:49;;;;;;;;;;;5.60;54.00;;;;;;5038172;28;19966;-78
2022/03/12 05:57:14;;;;;;;;;;;5.40;54.70;;;;;;5057331;28;20001;-60
2022/03/12 05:59:40;;;;;;;;;;;5.50;54.60;;;;;;5039360;28;19913;-63
2022/03/12 06:02:06;;;;;;;;;;;5.50;54.00;;;;;;5056468;28;19909;-60
2022/03/12 06:04:32;;;;;;;;;;;5.60;54.40;;;;;;5056502;28;19913;-66
2022/03/12 06:06:57;;;;;;;;;;;5.30;54.20;;;;;;5037724;28;20404;-62
2022/03/12 06:09:23;;;;;;;;;;;5.50;54.70;;;;;;5055873;28;19999;-62
2022/03/12 06:11:52;;;;;;;;;;;5.40;54.50;;;;;;5055213;28;19915;-60
2022/03/12 06:14:18;;;;;;;;;;;5.40;54.20;;;;;;5055600;28;19917;-60
2022/03/12 06:16:48;;;;;;;;;;;5.40;54.30;;;;;;5055587;28;19967;-66
2022/03/12 06:19:19;;;;;;;;;;;5.50;54.50;;;;;;5037499;28;19909;-60
2022/03/12 06:21:44;;;;;;;;;;;5.60;54.10;;;;;;5055639;28;19971;-61
2022/03/12 06:24:10;;;;;;;;;;;5.70;54.10;;;;;;5055670;28;19912;-61
2022/03/12 06:26:36;;;;;;;;;;;5.50;54.00;;;;;;5056411;28;19924;-63
2022/03/12 06:29:03;;;;;;;;;;;5.40;54.50;;;;;;5057014;28;20003;-64
2022/03/12 06:31:29;;;;;;;;;;;5.20;54.20;;;;;;5038051;28;19909;-60
2022/03/12 06:33:54;;;;;;;;;;;5.10;54.80;;;;;;5036443;28;19920;-63
2022/03/12 06:36:22;;;;;;;;;;;5.40;54.60;;;;;;5055461;28;19921;-62
2022/03/12 06:38:48;;;;;;;;;;;5.50;54.00;;;;;;5036661;28;19919;-60
2022/03/12 06:41:13;;;;;;;;;;;5.50;54.00;;;;;;5054991;28;19909;-61
2022/03/12 06:43:42;;;;;;;;;;;5.20;54.10;;;;;;5055204;28;20269;-60
2022/03/12 06:46:09;;;;;;;;;;;5.10;54.50;;;;;;5068720;28;20129;-61
2022/03/12 06:48:35;;;;;;;;;;;5.30;54.60;;;;;;5074825;28;19909;-60
2022/03/12 06:51:01;;;;;;;;;;;5.40;54.10;;;;;;5074041;28;20317;-61
2022/03/12 06:53:27;;;;;;;;;;;5.40;54.20;;;;;;5074831;28;19966;-61
2022/03/12 06:55:53;;;;;;;;;;;5.70;53.90;;;;;;5068638;28;19955;-60
2022/03/12 06:58:19;;;;;;;;;;;5.60;54.10;;;;;;5047042;28;20357;-65
2022/03/12 07:00:45;;;;;;;;;;;5.40;54.00;;;;;;5068189;28;19914;-62
2022/03/12 07:03:10;;;;;;;;;;;5.70;53.80;;;;;;5068690;28;19912;-62
2022/03/12 07:05:36;;;;;;;;;;;6.10;53.50;;;;;;5074509;28;19916;-63
2022/03/12 07:08:02;;;;;;;;;;;6.30;53.00;;;;;;5074340;28;19908;-60
2022/03/12 07:10:29;;;;;;;;;;;5.90;53.20;;;;;;5073158;28;19923;-63
2022/03/12 07:12:54;;;;;;;;;;;6.40;52.70;;;;;;5055750;28;19909;-60
2022/03/12 07:15:21;;;;;;;;;;;6.50;53.00;;;;;;5073931;28;19920;-60
2022/03/12 07:17:47;;;;;;;;;;;6.90;52.40;;;;;;5074152;28;19920;-62
2022/03/12 07:20:14;;;;;;;;;;;7.40;52.00;;;;;;5055635;28;20278;-60
2022/03/12 07:22:41;;;;;;;;;;;7.60;51.50;;;;;;5073675;28;19919;-60
2022/03/12 07:25:10;;;;;;;;;;;7.70;51.60;;;;;;5079000;28;20281;-61
2022/03/12 07:27:36;;;;;;;;;;;7.90;51.80;;;;;;5094254;28;19908;-62
2022/03/12 07:30:03;;;;;;;;;;;7.90;51.20;;;;;;5075544;28;19916;-61
2022/03/12 07:32:29;;;;;;;;;;;8.00;51.30;;;;;;5076164;28;19962;-62
2022/03/12 07:34:54;;;;;;;;;;;8.20;50.90;;;;;;5075528;28;19952;-64
2022/03/12 07:37:21;;;;;;;;;;;8.60;51.00;;;;;;5094455;28;19912;-63
2022/03/12 07:39:47;;;;;;;;;;;8.90;50.50;;;;;;5093864;28;19912;-64
2022/03/12 07:42:13;;;;;;;;;;;9.00;49.80;;;;;;5076078;28;20377;-61
2022/03/12 07:44:39;;;;;;;;;;;9.00;49.60;;;;;;5092553;28;19934;-60
2022/03/12 07:47:05;;;;;;;;;;;8.60;50.30;;;;;;5084056;28;19916;-62
2022/03/12 07:49:31;;;;;;;;;;;9.00;51.70;;;;;;5075303;28;19966;-63
2022/03/12 07:51:56;;;;;;;;;;;9.10;50.60;;;;;;5092185;28;19908;-63
2022/03/12 07:54:23;;;;;;;;;;;9.10;50.10;;;;;;5061057;28;20027;-64
2022/03/12 07:56:49;;;;;;;;;;;8.80;49.50;;;;;;5067985;28;19912;-64
2022/03/12 07:59:14;;;;;;;;;;;8.90;50.00;;;;;;5090543;28;19908;-62
2022/03/12 08:01:40;;;;;;;;;;;8.60;50.20;;;;;;5093798;28;19915;-66
2022/03/12 08:04:06;;;;;;;;;;;8.80;49.70;;;;;;5092989;28;20350;-61
2022/03/12 08:06:33;;;;;;;;;;;8.50;50.70;;;;;;5075676;28;19908;-62
2022/03/12 08:08:58;;;;;;;;;;;9.00;50.10;;;;;;5068107;28;19947;-60
2022/03/12 08:11:25;;;;;;;;;;;8.80;50.10;;;;;;5093788;28;19908;-61
2022/03/12 08:13:55;;;;;;;;;;;9.20;49.90;;;;;;5093260;28;19908;-62
2022/03/12 08:16:21;;;;;;;;;;;9.30;49.60;;;;;;5093958;28;19919;-61
2022/03/12 08:18:46;;;;;;;;;;;9.30;49.40;;;;;;5075744;28;20353;-62
2022/03/12 08:21:12;;;;;;;;;;;9.30;49.10;;;;;;5093185;28;20301;-62
2022/03/12 08:23:38;;;;;;;;;;;9.70;50.00;;;;;;5088422;28;19916;-63
2022/03/12 08:26:04;;;;;;;;;;;9.80;49.30;;;;;;5069683;28;19959;-60
2022/03/12 08:28:32;;;;;;;;;;;9.70;49.10;;;;;;5093111;28;19955;-63
2022/03/12 08:30:57;;;;;;;;;;;9.30;49.40;;;;;;5069392;28;19931;-63
2022/03/12 08:33:23;;;;;;;;;;;9.80;49.90;;;;;;5092204;28;20361;-63
2022/03/12 08:35:48;;;;;;;;;;;10.40;49.40;;;;;;5078098;28;19917;-62
2022/03/12 08:38:14;;;;;;;;;;;10.40;48.50;;;;;;5087176;28;19921;-66
2022/03/12 08:40:40;;;;;;;;;;;10.30;48.50;;;;;;5070314;28;20300;-64
2022/03/12 08:43:05;;;;;;;;;;;10.50;49.30;;;;;;5065413;28;19913;-65
2022/03/12 08:45:31;;;;;;;;;;;10.50;48.80;;;;;;5082828;28;19908;-61
2022/03/12 08:47:57;;;;;;;;;;;10.30;49.50;;;;;;5082189;28;20003;-62
2022/03/12 08:50:24;;;;;;;;;;;11.20;49.50;;;;;;5087400;28;19913;-63
2022/03/12 08:52:50;;;;;;;;;;;11.40;47.70;;;;;;5080311;28;19974;-66
2022/03/12 08:55:16;;;;;;;;;;;10.60;48.50;;;;;;5067756;28;19968;-67
2022/03/12 08:57:42;;;;;;;;;;;10.20;48.70;;;;;;5064826;28;20392;-64
2022/03/12 09:00:09;;;;;;;;;;;11.20;49.60;;;;;;5070129;28;19915;-66
2022/03/12 09:02:35;;;;;;;;;;;12.20;48.50;;;;;;5064746;28;20243;-63
2022/03/12 09:05:04;;;;;;;;;;;12.30;47.60;;;;;;5071599;28;19912;-63
2022/03/12 09:07:30;;;;;;;;;;;12.50;48.60;;;;;;5086310;28;19919;-66
2022/03/12 09:09:55;;;;;;;;;;;12.10;48.40;;;;;;5090623;28;19914;-76
2022/03/12 09:12:21;;;;;;;;;;;13.10;48.80;;;;;;5065635;28;20007;-66
2022/03/12 09:14:47;;;;;;;;;;;;;;;;;;5066678;28;19950;-65
2022/03/12 09:17:13;;;;;;;;;;;13.90;46.40;;;;;;5058884;28;19917;-64
2022/03/12 09:19:38;;;;;;;;;;;12.90;47.40;;;;;;5089812;28;19919;-64
2022/03/12 09:22:04;;;;;;;;;;;12.30;48.20;;;;;;5072521;28;20411;-64
2022/03/12 09:24:30;;;;;;;;;;;13.00;48.30;;;;;;5089500;28;19976;-67
2022/03/12 09:26:56;;;;;;;;;;;12.80;47.90;;;;;;5089587;28;20373;-75
2022/03/12 09:29:22;;;;;;;;;;;13.00;48.10;;;;;;5086029;28;19923;-62
2022/03/12 09:31:48;;;;;;;;;;;13.10;47.10;;;;;;5084533;28;19916;-67
2022/03/12 09:34:14;;;;;;;;;;;13.50;47.80;;;;;;5083332;28;20379;-63
2022/03/12 09:36:40;;;;;;;;;;;13.60;47.10;;;;;;5063669;28;19973;-65
2022/03/12 09:39:06;;;;;;;;;;;13.60;47.50;;;;;;5060999;28;20435;-65
2022/03/12 09:41:35;;;;;;;;;;;13.20;48.60;;;;;;5084083;28;19916;-63
2022/03/12 09:44:01;;;;;;;;;;;13.00;49.60;;;;;;5077486;28;19927;-66
2022/03/12 09:46:26;;;;;;;;;;;14.20;48.90;;;;;;5087656;28;19986;-65
2022/03/12 09:48:52;;;;;;;;;;;13.90;47.40;;;;;;5088988;28;20302;-63
2022/03/12 09:51:18;;;;;;;;;;;14.40;48.90;;;;;;5083319;28;20050;-65
2022/03/12 09:53:43;;;;;;;;;;;13.50;47.50;;;;;;5066659;28;19916;-64
2022/03/12 09:56:09;;;;;;;;;;;13.40;48.70;;;;;;5066027;28;19928;-63
2022/03/12 09:58:35;;;;;;;;;;;14.20;47.90;;;;;;5086308;28;19923;-64
2022/03/12 10:01:00;;;;;;;;;;;14.60;47.60;;;;;;5086024;28;19961;-70
2022/03/12 10:03:26;;;;;;;;;;;15.20;46.90;;;;;;5072086;28;20125;-63
2022/03/12 10:05:52;;;;;;;;;;;15.40;46.80;;;;;;5092398;28;20057;-63
2022/03/12 10:08:18;;;;;;;;;;;16.10;47.00;;;;;;5069735;28;20680;-65
2022/03/12 10:10:44;;;;;;;;;;;16.20;46.20;;;;;;5090733;28;20357;-63
2022/03/12 10:13:10;;;;;;;;;;;15.50;45.80;;;;;;5071863;28;19930;-65
2022/03/12 10:15:37;;;;;;;;;;;15.40;47.10;;;;;;5090806;28;20277;-66
2022/03/12 10:18:02;;;;;;;;;;;16.50;46.50;;;;;;5090261;28;19949;-65
2022/03/12 10:20:28;;;;;;;;;;;17.20;46.30;;;;;;5089908;28;19990;-67
2022/03/12 10:22:55;;;;;;;;;;;;;;;;;;5084028;28;19914;-64
2022/03/12 10:25:21;;;;;;;;;;;;;;;;;;5068737;28;19925;-62
2022/03/12 10:27:49;;;;;;;;;;;;;;;;;;5072408;28;21802;-63
2022/03/12 10:30:15;;;;;;;;;;;;;;;;;;5070021;28;19923;-63
2022/03/12 10:32:44;;;;;;;;;;;;;;;;;;5069007;28;19909;-64
2022/03/12 10:35:10;;;;;;;;;;;;;;;;;;5069988;28;19952;-66
2022/03/12 10:37:36;;;;;;;;;;;;;;;;;;5068680;28;20007;-66
2022/03/12 10:40:03;;;;;;;;;;;;;;;;;;5071963;28;20003;-66
2022/03/12 10:42:29;;;;;;;;;;;;;;;;;;5070714;28;19908;-64
2022/03/12 10:44:56;;;;;;;;;;;;;;;;;;5071263;28;19909;-62
2022/03/12 10:47:22;;;;;;;;;;;;;;;;;;5070529;28;19908;-64
2022/03/12 10:49:49;;;;;;;;;;;;;;;;;;5069634;28;19918;-67
2022/03/12 10:52:15;;;;;;;;;;;;;;;;;;5068790;28;19972;-63
2022/03/12 10:54:41;;;;;;;;;;;;;;;;;;5069682;28;19948;-63
2022/03/12 10:57:07;;;;;;;;;;;;;;;;;;5069824;28;20027;-67
2022/03/12 10:59:32;;;;;;;;;;;;;;;;;;5050952;28;19959;-64
2022/03/12 11:01:58;;;;;;;;;;;;;;;;;;5067228;28;19924;-69
2022/03/12 11:04:26;;;;;;;;;;;;;;;;;;5066793;28;20366;-68
2022/03/12 11:06:54;;;;;;;;;;;;;;;;;;5042711;28;19909;-65
2022/03/12 11:09:19;;;;;;;;;;;;;;;;;;5034079;28;20003;-68
2022/03/12 11:11:46;;;;;;;;;;;;;;;;;;5067321;28;20074;-66
2022/03/12 11:14:15;;;;;;;;;;;;;;;;;;5049603;28;20040;-64
2022/03/12 11:16:40;;;;;;;;;;;;;;;;;;5049317;28;20377;-67
2022/03/12 11:19:12;;;;;;;;;;;;;;;;;;5048198;28;19919;-66
2022/03/12 11:21:40;;;;;;;;;;;;;;;;;;5066295;28;20004;-63
2022/03/12 11:24:06;;;;;;;;;;;;;;;;;;5042475;28;19945;-68
2022/03/12 11:26:32;;;;;;;;;;;;;;;;;;5046182;28;19925;-64
2022/03/12 11:28:58;;;;;;;;;;;;;;;;;;5046220;28;20044;-62
2022/03/12 11:31:25;;;;;;;;;;;;;;;;;;5028971;28;20389;-67
2022/03/12 11:33:55;;;;;;;;;;;17.00;46.30;;;;;;5028937;28;20079;-66
2022/03/12 11:36:24;;;;;;;;;;;17.00;47.00;;;;;;5041696;28;19967;-66
2022/03/12 11:38:50;;;;;;;;;;;17.60;46.50;;;;;;5063946;28;19909;-63
2022/03/12 11:41:23;;;;;;;;;;;17.00;47.60;;;;;;5063001;28;19916;-66
2022/03/12 11:43:49;;;;;;;;;;;17.10;47.60;;;;;;5048698;28;19908;-63
2022/03/12 11:46:15;;;;;;;;;;;17.20;47.70;;;;;;5042739;28;19923;-64
2022/03/12 11:48:41;;;;;;;;;;;18.40;46.80;;;;;;5045316;28;19945;-66
2022/03/12 11:51:23;;;;;;;;;;;18.20;45.80;;;;;;5068354;28;19908;-64
2022/03/12 11:53:49;;;;;;;;;;;18.80;46.00;;;;;;5068109;28;19913;-70
2022/03/12 11:56:16;;;;;;;;;;;18.60;45.80;;;;;;5047648;28;19951;-68
2022/03/12 11:58:43;;;;;;;;;;;19.00;45.90;;;;;;5053080;28;20007;-70
2022/03/12 12:01:10;;;;;;;;;;;19.20;45.00;;;;;;5056280;28;19924;-69
2022/03/12 12:03:36;;;;;;;;;;;18.70;45.90;;;;;;5064210;28;19912;-69
2022/03/12 12:06:02;;;;;;;;;;;18.30;46.90;;;;;;5058161;28;19920;-65
2022/03/12 12:08:28;;;;;;;;;;;19.10;46.90;;;;;;5054098;28;20209;-72
2022/03/12 12:10:58;;;;;;;;;;;19.40;45.90;;;;;;5063228;28;20009;-68
2022/03/12 12:13:24;;;;;;;;;;;18.50;46.40;;;;;;5026883;28;20015;-66
2022/03/12 12:15:49;;;;;;;;;;;18.20;46.30;;;;;;5063481;28;20003;-75
2022/03/12 12:18:15;;;;;;;;;;;18.80;46.60;;;;;;5064475;28;19924;-68
2022/03/12 12:20:41;;;;;;;;;;;19.50;47.90;;;;;;5063941;28;19916;-71
2022/03/12 12:23:12;;;;;;;;;;;20.50;48.90;;;;;;5044904;28;19977;-74
2022/03/12 12:25:38;;;;;;;;;;;19.80;46.50;;;;;;5044181;28;20444;-67
2022/03/12 12:28:17;;;;;;;;;;;20.40;47.50;;;;;;5062477;28;19913;-68
2022/03/12 12:30:44;;;;;;;;;;;19.90;46.60;;;;;;5064312;28;19987;-68
2022/03/12 12:33:17;;;;;;;;;;;19.90;46.40;;;;;;5063709;28;19955;-71
2022/03/12 12:35:44;;;;;;;;;;;20.10;45.70;;;;;;5063686;28;19916;-66
2022/03/12 12:38:11;;;;;;;;;;;20.50;47.40;;;;;;5059598;28;19920;-72
2022/03/12 12:40:42;;;;;;;;;;;20.90;52.40;;;;;;5059016;28;20432;-66
2022/03/12 12:43:13;;;;;;;;;;;20.10;54.70;;;;;;5062286;28;19955;-72
2022/03/12 12:45:47;;;;;;;;;;;20.90;51.10;;;;;;5058117;28;20003;-71
2022/03/12 12:48:20;;;;;;;;;;;20.10;53.20;;;;;;5063808;28;20388;-65
2022/03/12 12:51:01;;;;;;;;;;;20.40;57.30;;;;;;5065249;28;19921;-65
2022/03/12 12:53:30;;;;;;;;;;;20.30;47.70;;;;;;5066465;28;19928;-64
2022/03/12 12:56:17;;;;;;;;;;;20.80;46.70;;;;;;5067588;28;19986;-63
2022/03/12 12:58:46;;;;;;;;;;;20.20;47.20;;;;;;5066565;28;19948;-65
2022/03/12 13:01:16;;;;;;;;;;;20.30;47.50;;;;;;5069684;28;19915;-66
2022/03/12 13:03:49;;;;;;;;;;;19.50;48.10;;;;;;5072009;28;19982;-67
2022/03/12 13:06:33;;;;;;;;;;;19.70;49.00;;;;;;5071634;28;19912;-68
2022/03/12 13:09:01;;;;;;;;;;;20.50;48.50;;;;;;5066338;28;19990;-67
2022/03/12 13:11:28;;;;;;;;;;;21.60;47.40;;;;;;5068362;28;19908;-66
2022/03/12 13:14:00;;;;;;;;;;;21.20;47.20;;;;;;5059705;28;19920;-66
2022/03/12 13:16:26;;;;;;;;;;;20.30;47.90;;;;;;5070664;28;20035;-68
2022/03/12 13:18:52;;;;;;;;;;;20.40;49.60;;;;;;5070534;28;20374;-64
2022/03/12 13:21:24;;;;;;;;;;;21.40;47.80;;;;;;5071749;28;19909;-66
2022/03/12 13:23:50;;;;;;;;;;;21.40;47.60;;;;;;5069961;28;19921;-67
2022/03/12 13:26:19;;;;;;;;;;;22.40;47.50;;;;;;5071790;28;20153;-63
2022/03/12 13:28:49;;;;;;;;;;;22.30;46.80;;;;;;5072891;28;19989;-67
2022/03/12 13:31:30;;;;;;;;;;;21.20;51.80;;;;;;5087912;28;19916;-67
2022/03/12 13:34:02;;;;;;;;;;;21.90;50.50;;;;;;5084208;28;19984;-65
2022/03/12 13:36:32;;;;;;;;;;;20.80;48.90;;;;;;5086324;28;20024;-69
2022/03/12 13:38:58;;;;;;;;;;;20.50;50.20;;;;;;5072490;28;20353;-68
2022/03/12 13:41:24;;;;;;;;;;;20.80;56.80;;;;;;5038344;28;19909;-68
2022/03/12 13:43:50;;;;;;;;;;;21.40;54.40;;;;;;5047378;28;19962;-67
2022/03/12 13:46:16;;;;;;;;;;;21.90;49.10;;;;;;5019121;28;20009;-65
2022/03/12 13:48:42;;;;;;;;;;;21.70;49.90;;;;;;5028023;28;20132;-67
2022/03/12 13:51:08;;;;;;;;;;;21.80;48.60;;;;;;5011292;28;19925;-67
2022/03/12 13:53:34;;;;;;;;;;;21.70;49.20;;;;;;5004157;28;19916;-67
2022/03/12 13:56:04;;;;;;;;;;;21.50;48.90;;;;;;5038356;28;19924;-68
2022/03/12 13:58:30;;;;;;;;;;;21.50;49.00;;;;;;5027933;28;19929;-65
2022/03/12 14:01:00;;;;;;;;;;;21.30;49.10;;;;;;5028043;28;19909;-65
2022/03/12 14:03:29;;;;;;;;;;;20.90;49.60;;;;;;5042674;28;19909;-67
2022/03/12 14:05:55;;;;;;;;;;;20.60;50.10;;;;;;5005309;28;19916;-63
2022/03/12 14:08:24;;;;;;;;;;;20.40;49.90;;;;;;5036768;28;19909;-63
2022/03/12 14:10:50;;;;;;;;;;;20.20;54.30;;;;;;5027705;28;19920;-66
2022/03/12 14:13:16;;;;;;;;;;;20.20;54.30;;;;;;5062993;28;19908;-67
2022/03/12 14:15:42;;;;;;;;;;;21.10;54.70;;;;;;5072335;28;19912;-67
2022/03/12 14:18:07;;;;;;;;;;;21.50;57.70;;;;;;5072485;28;19912;-68
2022/03/12 14:20:37;;;;;;;;;;;21.60;58.80;;;;;;5089758;28;20342;-68
2022/03/12 14:23:03;;;;;;;;;;;21.40;53.70;;;;;;5072056;28;19912;-67
2022/03/12 14:25:29;;;;;;;;;;;21.50;62.60;;;;;;5071755;28;19954;-58
2022/03/12 14:27:56;;;;;;;;;;;22.00;64.40;;;;;;5090693;28;19908;-56
2022/03/12 14:30:24;;;;;;;;;;;22.40;65.50;;;;;;5072102;28;20006;-56
2022/03/12 14:32:50;;;;;;;;;;;22.50;61.10;;;;;;5072481;28;20279;-58
2022/03/12 14:35:16;;;;;;;;;;;;;;;;;;5071394;28;20229;-57